Time;durP1;ratioP1;P1;durP2;ratioP2;P2;SDS_P1;SDS_P2;PMS_P1;PMS_P2;Temp;Humidity;BMP_temperature;BMP_pressure;BME280_temperature;BME280_humidity;BME280_pressure;Samples;Min_cycle;Max_cycle;Signal;HPM_P1;HPM_P2
2022/08/21 00:00:54;;;;;;;19.55;11.63;;;;;;;;;;5114121;28;20031;-64
2022/08/21 00:03:20;;;;;;;21.08;12.63;;;;;;;;;;5114093;28;20139;-64
2022/08/21 00:05:49;;;;;;;19.10;12.00;;;;;;;;;;5114245;28;20119;-63
2022/08/21 00:08:15;;;;;;;20.05;11.75;;;;;;;;;;5113331;28;20039;-64
2022/08/21 00:10:42;;;;;;;19.42;12.00;;;;;;;;;;5114855;28;20019;-64
2022/08/21 00:13:08;;;;;;;20.67;13.07;;;;;;;;;;5114616;28;20027;-64
2022/08/21 00:15:36;;;;;;;23.13;14.13;;;;;;;;;;5115512;28;20049;-64
2022/08/21 00:18:02;;;;;;;22.52;12.43;;;;;;;;;;5114915;28;20020;-65
2022/08/21 00:20:28;;;;;;;20.67;12.27;;;;;;;;;;5114445;28;20028;-63
2022/08/21 00:22:54;;;;;;;19.90;13.38;;;;;;;;;;5114366;28;20023;-65
2022/08/21 00:25:20;;;;;;;22.30;13.20;;;;;;;;;;5115504;28;20032;-63
2022/08/21 00:27:47;;;;;;;20.75;12.35;;;;;;;;;;5114968;28;20024;-64
2022/08/21 00:30:14;;;;;;;20.67;12.40;;;;;;;;;;5115534;28;20031;-64
2022/08/21 00:32:40;;;;;;;22.50;12.38;;;;;;;;;;5114183;28;20038;-64
2022/08/21 00:35:08;;;;;;;19.65;11.63;;;;;;;;;;5115623;28;20043;-64
2022/08/21 00:37:34;;;;;;;22.83;12.27;;;;;;;;;;5114824;28;20020;-63
2022/08/21 00:40:00;;;;;;;20.98;12.07;;;;;;;;;;5115198;28;20020;-64
2022/08/21 00:42:28;;;;;;;21.85;12.48;;;;;;;;;;5115477;28;20367;-64
2022/08/21 00:44:54;;;;;;;19.75;12.32;;;;;;;;;;5115265;28;20491;-64
2022/08/21 00:47:20;;;;;;;23.63;12.98;;;;;;;;;;5113366;28;20061;-58
2022/08/21 00:49:46;;;;;;;21.17;12.82;;;;;;;;;;5115219;28;20019;-62
2022/08/21 00:52:21;;;;;;;19.63;12.23;;;;;;;;;;5115463;28;20391;-62
2022/08/21 00:54:48;;;;;;;21.13;12.88;;;;;;;;;;5115227;28;20027;-63
2022/08/21 00:57:19;;;;;;;19.23;12.10;;;;;;;;;;5114880;28;20068;-63
2022/08/21 00:59:48;;;;;;;23.58;12.07;;;;;;;;;;5115244;28;20102;-64
2022/08/21 01:02:14;;;;;;;22.20;12.20;;;;;;;;;;5115189;28;20070;-64
2022/08/21 01:04:40;;;;;;;19.42;12.57;;;;;;;;;;5113939;28;20134;-64
2022/08/21 01:07:06;;;;;;;20.98;12.07;;;;;;;;;;5114869;28;20502;-64
2022/08/21 01:09:32;;;;;;;21.85;12.57;;;;;;;;;;5114443;28;20020;-64
2022/08/21 01:11:59;;;;;;;20.42;13.02;;;;;;;;;;5115021;28;20094;-62
2022/08/21 01:14:25;;;;;;;23.73;11.73;;;;;;;;;;5114729;28;20102;-64
2022/08/21 01:16:52;;;;;;;20.70;12.35;;;;;;;;;;5114704;28;20053;-64
2022/08/21 01:19:20;;;;;;;19.58;12.35;;;;;;;;;;5114205;28;20462;-63
2022/08/21 01:21:46;;;;;;;25.30;13.07;;;;;;;;;;5114869;28;20046;-64
2022/08/21 01:24:12;;;;;;;23.17;12.65;;;;;;;;;;5114574;28;20540;-64
2022/08/21 01:26:39;;;;;;;21.15;12.00;;;;;;;;;;5114746;28;20016;-64
2022/08/21 01:29:27;;;;;;;18.00;12.13;;;;;;;;;;5114057;28;20103;-64
2022/08/21 01:31:53;;;;;;;19.88;11.23;;;;;;;;;;5114838;28;20469;-64
2022/08/21 01:34:19;;;;;;;19.60;12.55;;;;;;;;;;5114330;28;20024;-64
2022/08/21 01:36:46;;;;;;;19.83;12.00;;;;;;;;;;5114425;28;20019;-63
2022/08/21 01:39:12;;;;;;;22.52;11.63;;;;;;;;;;5113794;28;20044;-63
2022/08/21 01:41:38;;;;;;;21.83;12.45;;;;;;;;;;5114700;28;20035;-63
2022/08/21 01:44:04;;;;;;;21.65;12.13;;;;;;;;;;5114578;28;20054;-64
2022/08/21 01:46:31;;;;;;;18.48;12.25;;;;;;;;;;5113125;28;20399;-62
2022/08/21 01:48:57;;;;;;;22.80;12.10;;;;;;;;;;5113550;28;20042;-63
2022/08/21 01:51:23;;;;;;;22.40;13.00;;;;;;;;;;5112812;28;20032;-64
2022/08/21 01:53:49;;;;;;;19.75;12.30;;;;;;;;;;5114196;28;20197;-62
2022/08/21 01:56:16;;;;;;;22.77;12.32;;;;;;;;;;5113976;28;20057;-62
2022/08/21 01:58:43;;;;;;;27.73;12.77;;;;;;;;;;5113354;28;20019;-63
2022/08/21 02:01:09;;;;;;;21.52;12.95;;;;;;;;;;5114990;28;20062;-64
2022/08/21 02:03:35;;;;;;;22.58;13.15;;;;;;;;;;5115370;28;20020;-63
2022/08/21 02:06:01;;;;;;;22.38;12.85;;;;;;;;;;5114818;28;20096;-62
2022/08/21 02:08:28;;;;;;;26.95;12.90;;;;;;;;;;5113408;28;20019;-63
2022/08/21 02:10:54;;;;;;;22.10;12.68;;;;;;;;;;5112646;28;20107;-62
2022/08/21 02:13:20;;;;;;;21.25;12.82;;;;;;;;;;5113838;28;20115;-57
2022/08/21 02:15:46;;;;;;;19.02;12.85;;;;;;;;;;5113658;28;20048;-63
2022/08/21 02:18:12;;;;;;;20.80;12.98;;;;;;;;;;5112298;28;20028;-61
2022/08/21 02:20:41;;;;;;;20.25;13.02;;;;;;;;;;5113763;28;20395;-62
2022/08/21 02:23:07;;;;;;;;;;;;;;;;;;5114140;28;20387;-62
2022/08/21 02:25:33;;;;;;;22.10;13.82;;;;;;;;;;5113713;28;20126;-62
2022/08/21 02:28:00;;;;;;;21.95;12.70;;;;;;;;;;5113086;28;20027;-63
2022/08/21 02:30:38;;;;;;;21.92;12.68;;;;;;;;;;5112350;28;20028;-62
2022/08/21 02:33:05;;;;;;;24.20;15.10;;;;;;;;;;5113509;28;20023;-64
2022/08/21 02:35:31;;;;;;;22.10;14.13;;;;;;;;;;5112113;28;20054;-63
2022/08/21 02:38:00;;;;;;;24.05;14.18;;;;;;;;;;5112548;28;20032;-62
2022/08/21 02:40:30;;;;;;;23.52;13.38;;;;;;;;;;5113611;28;20031;-62
2022/08/21 02:42:56;;;;;;;22.00;13.50;;;;;;;;;;5113248;28;20024;-60
2022/08/21 02:45:22;;;;;;;22.95;13.70;;;;;;;;;;5112106;28;20035;-62
2022/08/21 02:47:52;;;;;;;23.33;14.45;;;;;;;;;;5111315;28;20023;-63
2022/08/21 02:50:20;;;;;;;21.70;14.10;;;;;;;;;;5111844;28;20023;-62
2022/08/21 02:52:46;;;;;;;23.63;14.63;;;;;;;;;;5113811;28;20536;-62
2022/08/21 02:55:12;;;;;;;23.13;14.32;;;;;;;;;;5112735;28;20040;-62
2022/08/21 02:57:38;;;;;;;22.70;15.90;;;;;;;;;;5111948;28;20023;-62
2022/08/21 03:00:05;;;;;;;26.05;15.57;;;;;;;;;;5113080;28;20034;-62
2022/08/21 03:02:31;;;;;;;29.13;15.45;;;;;;;;;;5113140;28;20016;-63
2022/08/21 03:04:57;;;;;;;22.88;15.38;;;;;;;;;;5112851;28;20036;-62
2022/08/21 03:07:23;;;;;;;25.63;16.38;;;;;;;;;;5112178;28;20391;-61
2022/08/21 03:09:49;;;;;;;22.52;15.68;;;;;;;;;;5112433;28;20115;-62
2022/08/21 03:12:15;;;;;;;23.10;16.65;;;;;;;;;;5111534;28;20024;-63
2022/08/21 03:14:41;;;;;;;24.92;15.90;;;;;;;;;;5112670;28;20073;-62
2022/08/21 03:17:07;;;;;;;23.13;16.48;;;;;;;;;;5112588;28;20059;-60
2022/08/21 03:19:33;;;;;;;27.90;17.10;;;;;;;;;;5112131;28;20043;-60
2022/08/21 03:21:59;;;;;;;24.77;17.10;;;;;;;;;;5112508;28;20016;-63
2022/08/21 03:24:26;;;;;;;25.13;16.30;;;;;;;;;;5111467;28;20380;-61
2022/08/21 03:26:52;;;;;;;24.45;16.63;;;;;;;;;;5112382;28;20019;-60
2022/08/21 03:29:18;;;;;;;27.85;16.73;;;;;;;;;;5110890;28;20023;-60
2022/08/21 03:31:44;;;;;;;26.60;16.67;;;;;;;;;;5112437;28;20028;-62
2022/08/21 03:34:10;;;;;;;23.77;16.75;;;;;;;;;;5112463;28;20116;-63
2022/08/21 03:36:36;;;;;;;27.52;17.90;;;;;;;;;;5112259;28;20030;-62
2022/08/21 03:39:03;;;;;;;22.52;15.75;;;;;;;;;;5111741;28;20110;-63
2022/08/21 03:41:29;;;;;;;22.02;16.83;;;;;;;;;;5112043;28;20024;-62
2022/08/21 03:43:55;;;;;;;28.92;17.20;;;;;;;;;;5110601;28;20023;-63
2022/08/21 03:46:21;;;;;;;25.20;17.75;;;;;;;;;;5112120;28;20081;-61
2022/08/21 03:48:48;;;;;;;25.85;17.52;;;;;;;;;;5111605;28;20107;-64
2022/08/21 03:51:15;;;;;;;26.25;17.73;;;;;;;;;;5112068;28;20097;-63
2022/08/21 03:53:41;;;;;;;23.98;17.98;;;;;;;;;;5112279;28;20016;-62
2022/08/21 03:56:07;;;;;;;24.67;17.85;;;;;;;;;;5110791;28;20039;-62
2022/08/21 03:58:33;;;;;;;27.67;18.15;;;;;;;;;;5111418;28;20694;-62
2022/08/21 04:01:00;;;;;;;28.25;17.33;;;;;;;;;;5113728;28;20049;-62
2022/08/21 04:03:27;;;;;;;27.50;17.63;;;;;;;;;;5113045;28;20020;-62
2022/08/21 04:05:53;;;;;;;25.15;18.60;;;;;;;;;;5111898;28;20039;-63
2022/08/21 04:08:19;;;;;;;23.48;17.50;;;;;;;;;;5111488;28;20024;-62
2022/08/21 04:10:47;;;;;;;29.05;19.52;;;;;;;;;;5112134;28;20020;-62
2022/08/21 04:13:14;;;;;;;25.20;18.77;;;;;;;;;;5111917;28;20032;-62
2022/08/21 04:15:40;;;;;;;27.13;19.25;;;;;;;;;;5111671;28;20471;-62
2022/08/21 04:18:08;;;;;;;24.00;17.90;;;;;;;;;;5111325;28;20031;-63
2022/08/21 04:20:34;;;;;;;27.75;18.30;;;;;;;;;;5112276;28;20027;-62
2022/08/21 04:23:00;;;;;;;27.27;18.40;;;;;;;;;;5112316;28;20056;-60
2022/08/21 04:25:26;;;;;;;24.75;18.95;;;;;;;;;;5112295;28;20032;-63
2022/08/21 04:27:52;;;;;;;25.70;18.77;;;;;;;;;;5111373;28;20032;-62
2022/08/21 04:30:18;;;;;;;24.42;19.48;;;;;;;;;;5109068;28;20055;-63
2022/08/21 04:32:48;;;;;;;29.10;20.58;;;;;;;;;;5094097;28;20636;-63
2022/08/21 04:35:15;;;;;;;25.20;19.23;;;;;;;;;;5111815;28;20523;-62
2022/08/21 04:37:41;;;;;;;30.35;19.23;;;;;;;;;;5101339;28;20027;-61
2022/08/21 04:40:09;;;;;;;25.95;20.42;;;;;;;;;;5092450;28;20016;-62
2022/08/21 04:42:41;;;;;;;27.73;19.67;;;;;;;;;;5095056;28;20494;-62
2022/08/21 04:45:07;;;;;;;25.85;20.13;;;;;;;;;;5095035;28;20162;-63
2022/08/21 04:47:33;;;;;;;27.08;20.48;;;;;;;;;;5113728;28;20027;-62
2022/08/21 04:49:59;;;;;;;25.40;20.40;;;;;;;;;;5115486;28;20019;-64
2022/08/21 04:52:25;;;;;;;27.27;20.00;;;;;;;;;;5115219;28;20027;-63
2022/08/21 04:54:51;;;;;;;26.55;21.70;;;;;;;;;;5113784;28;20387;-63
2022/08/21 04:57:18;;;;;;;26.30;20.05;;;;;;;;;;5114574;28;20026;-62
2022/08/21 04:59:47;;;;;;;30.42;24.70;;;;;;;;;;5114960;28;20491;-63
2022/08/21 05:02:14;;;;;;;25.77;19.75;;;;;;;;;;5115007;28;20019;-63
2022/08/21 05:04:44;;;;;;;26.48;19.58;;;;;;;;;;5093905;28;20073;-63
2022/08/21 05:07:12;;;;;;;25.45;19.30;;;;;;;;;;5094097;28;20023;-60
2022/08/21 05:09:39;;;;;;;26.23;18.92;;;;;;;;;;5094533;28;20056;-64
2022/08/21 05:12:05;;;;;;;36.42;27.58;;;;;;;;;;5094579;28;20461;-63
2022/08/21 05:14:31;;;;;;;23.20;19.42;;;;;;;;;;5094378;28;20016;-62
2022/08/21 05:16:58;;;;;;;27.58;21.60;;;;;;;;;;5094487;28;20027;-60
2022/08/21 05:19:24;;;;;;;28.33;18.67;;;;;;;;;;5093628;28;20064;-61
2022/08/21 05:21:51;;;;;;;23.73;18.77;;;;;;;;;;5094386;28;20031;-65
2022/08/21 05:24:17;;;;;;;24.95;18.77;;;;;;;;;;5094595;28;20472;-65
2022/08/21 05:26:44;;;;;;;24.23;18.73;;;;;;;;;;5094521;28;20577;-66
2022/08/21 05:29:10;;;;;;;24.08;19.35;;;;;;;;;;5093591;28;20024;-66
2022/08/21 05:31:36;;;;;;;23.73;18.98;;;;;;;;;;5094369;28;20032;-62
2022/08/21 05:34:03;;;;;;;24.70;19.38;;;;;;;;;;5092977;28;20024;-61
2022/08/21 05:36:29;;;;;;;26.10;19.10;;;;;;;;;;5094166;28;20024;-61
2022/08/21 05:38:55;;;;;;;30.02;19.08;;;;;;;;;;5093244;28;20020;-61
2022/08/21 05:41:21;;;;;;;26.98;19.05;;;;;;;;;;5094125;28;20024;-62
2022/08/21 05:43:47;;;;;;;26.77;18.33;;;;;;;;;;5093830;28;20024;-60
2022/08/21 05:46:13;;;;;;;23.75;18.83;;;;;;;;;;5092402;28;20099;-62
2022/08/21 05:48:39;;;;;;;25.88;18.80;;;;;;;;;;5092972;28;20108;-63
2022/08/21 05:51:09;;;;;;;25.13;18.65;;;;;;;;;;5093744;28;20059;-62
2022/08/21 05:53:36;;;;;;;28.33;19.60;;;;;;;;;;5093117;28;20024;-62
2022/08/21 05:56:03;;;;;;;30.17;20.92;;;;;;;;;;5114955;23;20040;-65
2022/08/21 05:58:29;;;;;;;26.25;18.80;;;;;;;;;;5093189;28;20024;-65
2022/08/21 06:00:55;;;;;;;26.85;18.13;;;;;;;;;;5093714;28;20026;-65
2022/08/21 06:03:23;;;;;;;25.52;19.23;;;;;;;;;;5093408;28;20019;-65
2022/08/21 06:05:49;;;;;;;25.35;18.55;;;;;;;;;;5082262;28;20028;-65
2022/08/21 06:08:16;;;;;;;25.63;18.45;;;;;;;;;;5054544;28;20515;-65
2022/08/21 06:10:42;;;;;;;25.70;17.98;;;;;;;;;;5073320;28;20028;-65
2022/08/21 06:13:08;;;;;;;24.23;17.67;;;;;;;;;;5073246;28;20028;-67
2022/08/21 06:15:34;;;;;;;26.10;18.67;;;;;;;;;;5072962;28;20025;-67
2022/08/21 06:18:00;;;;;;;24.58;19.33;;;;;;;;;;5072372;28;20038;-67
2022/08/21 06:20:26;;;;;;;24.25;18.40;;;;;;;;;;5055365;28;20460;-67
2022/08/21 06:22:52;;;;;;;24.30;17.02;;;;;;;;;;5073062;28;20024;-67
2022/08/21 06:25:19;;;;;;;25.48;17.80;;;;;;;;;;5073232;28;20043;-66
2022/08/21 06:27:45;;;;;;;25.70;18.25;;;;;;;;;;5072422;28;20029;-66
2022/08/21 06:30:11;;;;;;;24.75;17.30;;;;;;;;;;5072972;28;20028;-66
2022/08/21 06:32:37;;;;;;;22.73;16.80;;;;;;;;;;5072894;28;20094;-65
2022/08/21 06:35:04;;;;;;;22.92;17.80;;;;;;;;;;5072967;28;20041;-66
2022/08/21 06:37:31;;;;;;;24.48;17.10;;;;;;;;;;5054270;28;20028;-66
2022/08/21 06:39:57;;;;;;;23.27;17.27;;;;;;;;;;5072764;28;20036;-66
2022/08/21 06:42:23;;;;;;;22.70;16.67;;;;;;;;;;5072696;28;20017;-66
2022/08/21 06:44:49;;;;;;;26.15;17.80;;;;;;;;;;5072526;28;20037;-66
2022/08/21 06:47:15;;;;;;;24.25;16.63;;;;;;;;;;5071814;28;20051;-66
2022/08/21 06:49:41;;;;;;;24.38;17.23;;;;;;;;;;5072582;28;20492;-66
2022/08/21 06:52:11;;;;;;;22.00;16.17;;;;;;;;;;5055052;28;20440;-66
2022/08/21 06:54:38;;;;;;;24.58;16.17;;;;;;;;;;5072811;28;20366;-66
2022/08/21 06:57:04;;;;;;;24.85;15.82;;;;;;;;;;5072466;28;20040;-66
2022/08/21 06:59:30;;;;;;;23.13;16.23;;;;;;;;;;5071654;28;20044;-66
2022/08/21 07:01:56;;;;;;;21.75;16.42;;;;;;;;;;5054506;28;20054;-66
2022/08/21 07:04:22;;;;;;;21.40;15.00;;;;;;;;;;5072145;28;20045;-66
2022/08/21 07:06:48;;;;;;;20.23;14.77;;;;;;;;;;5054308;28;20032;-66
2022/08/21 07:09:14;;;;;;;21.83;15.38;;;;;;;;;;5071463;28;20404;-67
2022/08/21 07:11:40;;;;;;;22.17;14.45;;;;;;;;;;5072552;28;20155;-67
2022/08/21 07:14:06;;;;;;;20.60;14.32;;;;;;;;;;5072287;28;20025;-67
2022/08/21 07:16:32;;;;;;;23.23;14.95;;;;;;;;;;5072307;28;20024;-67
2022/08/21 07:18:59;;;;;;;21.40;14.98;;;;;;;;;;5071509;28;20187;-66
2022/08/21 07:21:25;;;;;;;22.02;14.43;;;;;;;;;;5072289;28;20039;-66
2022/08/21 07:23:51;;;;;;;23.80;15.38;;;;;;;;;;5071732;28;20017;-67
2022/08/21 07:26:20;;;;;;;22.75;14.55;;;;;;;;;;5072316;28;20378;-67
2022/08/21 07:28:46;;;;;;;22.20;14.75;;;;;;;;;;5071276;28;20028;-67
2022/08/21 07:31:14;;;;;;;23.38;14.68;;;;;;;;;;5072214;28;20380;-67
2022/08/21 07:33:41;;;;;;;23.65;14.27;;;;;;;;;;5072313;28;20099;-67
2022/08/21 07:36:07;;;;;;;20.13;14.30;;;;;;;;;;5071903;28;20318;-67
2022/08/21 07:38:39;;;;;;;22.08;14.50;;;;;;;;;;5053864;28;20066;-66
2022/08/21 07:41:19;;;;;;;20.40;14.05;;;;;;;;;;5054131;28;20119;-66
2022/08/21 07:43:46;;;;;;;20.92;13.90;;;;;;;;;;5072201;28;20059;-67
2022/08/21 07:46:12;;;;;;;23.15;14.82;;;;;;;;;;5072391;28;20370;-66
2022/08/21 07:48:38;;;;;;;23.02;14.82;;;;;;;;;;5053849;28;20477;-67
2022/08/21 07:51:12;;;;;;;22.33;14.15;;;;;;;;;;5054465;28;20081;-67
2022/08/21 07:53:38;;;;;;;21.90;14.65;;;;;;;;;;5072214;28;20614;-67
2022/08/21 07:56:05;;;;;;;21.60;15.40;;;;;;;;;;5054797;28;20071;-67
2022/08/21 07:58:32;;;;;;;21.05;14.20;;;;;;;;;;5071358;28;20071;-67
2022/08/21 08:00:58;;;;;;;27.50;14.70;;;;;;;;;;5072294;28;20029;-67
2022/08/21 08:03:24;;;;;;;24.83;14.82;;;;;;;;;;5054165;28;20167;-67
2022/08/21 08:05:50;;;;;;;22.70;14.60;;;;;;;;;;5071984;28;20032;-67
2022/08/21 08:08:17;;;;;;;23.88;15.68;;;;;;;;;;5071366;28;20048;-64
2022/08/21 08:10:43;;;;;;;25.02;15.70;;;;;;;;;;5071371;28;20028;-65
2022/08/21 08:13:09;;;;;;;26.42;16.27;;;;;;;;;;5071773;28;20035;-65
2022/08/21 08:15:36;;;;;;;20.95;15.68;;;;;;;;;;5073284;28;20024;-64
2022/08/21 08:18:02;;;;;;;25.38;16.27;;;;;;;;;;5075133;28;20029;-64
2022/08/21 08:20:29;;;;;;;25.90;15.13;;;;;;;;;;5075790;28;20020;-63
2022/08/21 08:22:55;;;;;;;22.88;16.17;;;;;;;;;;5075972;28;20082;-63
2022/08/21 08:25:22;;;;;;;26.77;17.35;;;;;;;;;;5075805;28;20043;-63
2022/08/21 08:27:49;;;;;;;26.20;16.58;;;;;;;;;;5074938;28;20053;-64
2022/08/21 08:30:16;;;;;;;23.67;16.20;;;;;;;;;;5076034;28;20033;-63
2022/08/21 08:32:42;;;;;;;24.00;15.65;;;;;;;;;;5075891;28;20477;-62
2022/08/21 08:35:09;;;;;;;24.45;16.42;;;;;;;;;;5075701;28;20021;-63
2022/08/21 08:37:37;;;;;;;27.17;17.20;;;;;;;;;;5074767;28;20059;-62
2022/08/21 08:40:04;;;;;;;23.55;16.77;;;;;;;;;;5075640;28;20017;-63
2022/08/21 08:42:32;;;;;;;28.02;17.58;;;;;;;;;;5075483;28;20069;-62
2022/08/21 08:44:58;;;;;;;;;;;;;;;;;;5075482;28;20024;-63
2022/08/21 08:47:25;;;;;;;26.30;16.55;;;;;;;;;;5074676;28;19915;-63
2022/08/21 08:49:57;;;;;;;23.27;16.40;;;;;;;;;;5075438;28;20101;-63
2022/08/21 08:52:28;;;;;;;27.15;16.95;;;;;;;;;;5075296;28;20058;-63
2022/08/21 08:55:00;;;;;;;25.15;16.10;;;;;;;;;;5056940;28;20036;-64
2022/08/21 08:57:26;;;;;;;23.02;15.80;;;;;;;;;;5073853;28;20476;-63
2022/08/21 08:59:54;;;;;;;25.98;17.40;;;;;;;;;;5075255;28;20027;-63
2022/08/21 09:02:23;;;;;;;25.27;16.95;;;;;;;;;;5075297;28;20051;-65
2022/08/21 09:04:50;;;;;;;26.35;16.58;;;;;;;;;;5057055;28;20048;-63
2022/08/21 09:07:23;;;;;;;23.23;16.97;;;;;;;;;;5074384;28;20059;-62
2022/08/21 09:10:09;;;;;;;24.42;16.70;;;;;;;;;;5057441;28;20123;-62
2022/08/21 09:12:35;;;;;;;25.05;16.45;;;;;;;;;;5070147;28;20108;-62
2022/08/21 09:15:07;;;;;;;27.83;17.27;;;;;;;;;;5072008;28;20116;-63
2022/08/21 09:17:45;;;;;;;25.08;16.17;;;;;;;;;;5059418;28;20453;-62
2022/08/21 09:20:13;;;;;;;23.55;15.85;;;;;;;;;;5054626;28;20075;-62
2022/08/21 09:22:47;;;;;;;20.30;15.57;;;;;;;;;;5054821;28;20609;-62
2022/08/21 09:25:24;;;;;;;21.73;15.23;;;;;;;;;;5054344;28;20047;-63
2022/08/21 09:27:50;;;;;;;23.92;14.25;;;;;;;;;;5052395;28;20029;-62
2022/08/21 09:30:17;;;;;;;20.88;15.00;;;;;;;;;;5056833;28;20028;-62
2022/08/21 09:32:43;;;;;;;19.85;13.00;;;;;;;;;;5074547;28;20032;-62
2022/08/21 09:35:11;;;;;;;20.15;13.23;;;;;;;;;;5074310;28;20024;-62
2022/08/21 09:37:46;;;;;;;20.10;13.20;;;;;;;;;;5073659;28;20024;-61
2022/08/21 09:40:21;;;;;;;18.88;13.93;;;;;;;;;;5073954;28;20020;-62
2022/08/21 09:42:55;;;;;;;21.17;14.13;;;;;;;;;;5074502;28;20099;-61
2022/08/21 09:45:21;;;;;;;19.17;14.45;;;;;;;;;;5074039;28;20024;-62
2022/08/21 09:47:47;;;;;;;20.25;14.65;;;;;;;;;;5073391;28;20569;-61
2022/08/21 09:50:22;;;;;;;21.63;14.23;;;;;;;;;;5073861;28;20032;-61
2022/08/21 09:52:56;;;;;;;17.70;13.63;;;;;;;;;;5074545;28;20412;-62
2022/08/21 09:58:11;;;;;;;18.60;14.52;;;;;;;;;;5073197;28;20519;-62
2022/08/21 10:00:37;;;;;;;25.15;12.43;;;;;;;;;;5073911;28;20077;-62
2022/08/21 10:03:19;;;;;;;19.92;10.75;;;;;;;;;;5073930;28;20025;-63
2022/08/21 10:05:55;;;;;;;17.88;11.55;;;;;;;;;;5073933;28;20017;-62
2022/08/21 10:08:21;;;;;;;17.90;10.45;;;;;;;;;;5073136;28;20055;-62
2022/08/21 10:10:51;;;;;;;18.63;12.02;;;;;;;;;;5073769;28;20106;-60
2022/08/21 10:13:22;;;;;;;18.60;12.07;;;;;;;;;;5073882;28;20025;-60
2022/08/21 10:15:54;;;;;;;20.40;14.40;;;;;;;;;;5073669;28;20028;-61
2022/08/21 10:18:30;;;;;;;20.90;14.30;;;;;;;;;;5054702;28;20020;-61
2022/08/21 10:20:56;;;;;;;19.02;14.15;;;;;;;;;;5074333;28;20055;-61
2022/08/21 10:23:37;;;;;;;19.67;14.55;;;;;;;;;;5074001;28;20032;-64
2022/08/21 10:26:30;;;;;;;20.95;14.75;;;;;;;;;;5074021;28;20093;-57
2022/08/21 10:29:08;;;;;;;21.15;14.75;;;;;;;;;;5068507;28;20041;-56
2022/08/21 10:31:37;;;;;;;21.50;14.15;;;;;;;;;;5073998;28;20381;-58
2022/08/21 10:34:22;;;;;;;20.88;15.40;;;;;;;;;;5073927;28;20077;-59
2022/08/21 10:36:51;;;;;;;18.55;14.15;;;;;;;;;;5055454;28;20035;-57
2022/08/21 10:39:37;;;;;;;23.67;14.85;;;;;;;;;;5072283;28;20036;-59
2022/08/21 10:42:12;;;;;;;20.40;14.10;;;;;;;;;;5073348;28;20453;-60
2022/08/21 10:44:38;;;;;;;19.30;14.55;;;;;;;;;;5073159;28;20063;-59
2022/08/21 10:47:27;;;;;;;21.17;14.27;;;;;;;;;;5073345;28;20063;-55
2022/08/21 10:49:59;;;;;;;19.15;13.38;;;;;;;;;;5059872;28;20062;-54
2022/08/21 10:52:44;;;;;;;19.45;13.38;;;;;;;;;;5072685;28;20029;-57
2022/08/21 10:55:14;;;;;;;18.13;13.57;;;;;;;;;;5072654;28;20035;-58
2022/08/21 10:58:01;;;;;;;19.52;14.10;;;;;;;;;;5068842;28;20188;-59
2022/08/21 11:00:30;;;;;;;19.50;10.43;;;;;;;;;;5060198;28;20112;-56
2022/08/21 11:02:56;;;;;;;18.33;11.27;;;;;;;;;;5052766;28;20021;-57
2022/08/21 11:05:45;;;;;;;17.95;10.70;;;;;;;;;;5052577;28;20036;-62
2022/08/21 11:08:38;;;;;;;17.30;11.05;;;;;;;;;;5023833;28;20452;-62
2022/08/21 11:11:16;;;;;;;17.55;10.02;;;;;;;;;;5050096;28;20044;-62
2022/08/21 11:13:47;;;;;;;17.23;10.23;;;;;;;;;;5052638;28;20025;-61
2022/08/21 11:16:31;;;;;;;16.45;10.52;;;;;;;;;;5052135;28;20036;-61
2022/08/21 11:19:17;;;;;;;15.93;10.48;;;;;;;;;;5051681;28;20684;-60
2022/08/21 11:21:48;;;;;;;15.43;10.07;;;;;;;;;;5051064;28;20021;-62
2022/08/21 11:24:17;;;;;;;17.67;11.05;;;;;;;;;;5052506;28;20013;-64
2022/08/21 11:26:50;;;;;;;17.88;10.82;;;;;;;;;;5052305;28;20075;-63
2022/08/21 11:29:28;;;;;;;17.30;10.93;;;;;;;;;;5051729;28;20029;-63
2022/08/21 11:32:04;;;;;;;17.60;11.48;;;;;;;;;;5050508;28;20028;-63
2022/08/21 11:34:33;;;;;;;16.98;11.38;;;;;;;;;;5072248;28;20028;-66
2022/08/21 11:37:07;;;;;;;16.58;11.68;;;;;;;;;;5072210;28;20028;-63
2022/08/21 11:39:49;;;;;;;17.38;12.05;;;;;;;;;;5072365;28;20032;-63
2022/08/21 11:42:23;;;;;;;15.95;10.90;;;;;;;;;;5072366;28;20048;-63
2022/08/21 11:44:54;;;;;;;16.73;11.00;;;;;;;;;;5071999;28;20039;-61
2022/08/21 11:47:20;;;;;;;16.33;12.10;;;;;;;;;;5071428;28;20028;-63
2022/08/21 11:50:05;;;;;;;17.05;12.10;;;;;;;;;;5071062;28;20021;-63
2022/08/21 11:52:31;;;;;;;16.33;11.68;;;;;;;;;;5072140;28;20409;-63
2022/08/21 11:55:03;;;;;;;17.17;11.95;;;;;;;;;;5072929;28;20029;-63
2022/08/21 11:57:35;;;;;;;17.85;11.77;;;;;;;;;;5071521;28;20024;-63
2022/08/21 12:00:08;;;;;;;17.40;10.80;;;;;;;;;;5072113;28;20024;-63
2022/08/21 12:02:36;;;;;;;17.25;11.43;;;;;;;;;;5071803;28;20021;-64
2022/08/21 12:05:09;;;;;;;17.75;11.52;;;;;;;;;;5071792;28;20051;-65
2022/08/21 12:07:41;;;;;;;16.40;10.95;;;;;;;;;;5071222;28;20100;-64
2022/08/21 12:10:10;;;;;;;16.98;11.50;;;;;;;;;;5072081;28;20441;-64
2022/08/21 12:12:38;;;;;;;16.27;11.80;;;;;;;;;;5072170;28;20129;-63
2022/08/21 12:15:10;;;;;;;16.75;11.40;;;;;;;;;;5071817;28;20047;-62
2022/08/21 12:17:38;;;;;;;16.73;11.88;;;;;;;;;;5070963;28;20060;-63
2022/08/21 12:20:27;;;;;;;17.20;12.20;;;;;;;;;;5071978;28;20039;-63
2022/08/21 12:23:16;;;;;;;18.30;12.27;;;;;;;;;;5061210;28;20040;-62
2022/08/21 12:25:44;;;;;;;16.77;12.20;;;;;;;;;;5061701;28;20094;-62
2022/08/21 12:28:12;;;;;;;16.23;12.15;;;;;;;;;;5071586;28;20370;-64
2022/08/21 12:30:42;;;;;;;17.83;12.70;;;;;;;;;;5072032;28;20032;-63
2022/08/21 12:33:39;;;;;;;16.45;12.40;;;;;;;;;;5072371;28;20021;-64
2022/08/21 12:36:11;;;;;;;16.13;11.98;;;;;;;;;;5054999;28;20036;-64
2022/08/21 12:38:46;;;;;;;16.67;11.93;;;;;;;;;;5063472;28;20031;-65
2022/08/21 12:41:22;;;;;;;15.50;10.88;;;;;;;;;;5062557;28;20017;-64
2022/08/21 12:43:53;;;;;;;16.45;10.43;;;;;;;;;;5062357;28;20025;-64
2022/08/21 12:46:21;;;;;;;16.63;11.30;;;;;;;;;;5041178;28;20039;-64
2022/08/21 12:48:51;;;;;;;16.65;11.50;;;;;;;;;;5070796;28;20033;-64
2022/08/21 12:51:19;;;;;;;16.40;11.27;;;;;;;;;;5062618;28;20041;-64
2022/08/21 12:54:03;;;;;;;16.05;11.18;;;;;;;;;;5061234;28;20028;-64
2022/08/21 12:56:31;;;;;;;16.60;11.23;;;;;;;;;;5070214;28;20501;-61
2022/08/21 12:59:02;;;;;;;15.45;10.90;;;;;;;;;;5070616;28;20087;-65
2022/08/21 13:01:28;;;;;;;16.35;11.68;;;;;;;;;;5072835;28;20033;-63
2022/08/21 13:03:56;;;;;;;15.82;11.20;;;;;;;;;;5075222;28;20020;-62
2022/08/21 13:06:23;;;;;;;17.25;11.35;;;;;;;;;;5074719;28;20115;-62
2022/08/21 13:08:52;;;;;;;16.88;10.70;;;;;;;;;;5073729;28;20028;-61
2022/08/21 13:11:19;;;;;;;18.20;11.20;;;;;;;;;;5074685;28;20028;-58
2022/08/21 13:13:49;;;;;;;16.05;11.38;;;;;;;;;;5056861;28;20036;-61
2022/08/21 13:16:18;;;;;;;16.00;11.63;;;;;;;;;;5074691;28;20572;-62
2022/08/21 13:19:01;;;;;;;16.52;11.65;;;;;;;;;;5074338;28;20025;-60
2022/08/21 13:21:32;;;;;;;17.45;11.45;;;;;;;;;;5075198;28;20112;-60
2022/08/21 13:24:14;;;;;;;16.35;11.15;;;;;;;;;;5075063;28;20377;-62
2022/08/21 13:26:40;;;;;;;17.00;11.95;;;;;;;;;;5071615;28;20097;-63
2022/08/21 13:29:11;;;;;;;16.65;11.43;;;;;;;;;;5073830;28;20504;-63
2022/08/21 13:31:38;;;;;;;15.80;11.32;;;;;;;;;;5074690;28;20028;-63
2022/08/21 13:34:04;;;;;;;16.35;11.45;;;;;;;;;;5073837;28;20035;-64
2022/08/21 13:36:33;;;;;;;17.05;11.20;;;;;;;;;;5074193;28;20373;-64
2022/08/21 13:39:00;;;;;;;16.45;10.90;;;;;;;;;;5073799;28;20025;-63
2022/08/21 13:41:28;;;;;;;17.10;11.60;;;;;;;;;;5074269;28;20042;-63
2022/08/21 13:43:58;;;;;;;17.30;11.23;;;;;;;;;;5074051;28;20047;-63
2022/08/21 13:46:27;;;;;;;18.23;11.80;;;;;;;;;;5074339;28;20031;-63
2022/08/21 13:48:54;;;;;;;17.85;11.68;;;;;;;;;;5073765;28;20048;-63
2022/08/21 13:51:20;;;;;;;16.38;12.15;;;;;;;;;;5074214;28;20028;-63
2022/08/21 13:53:51;;;;;;;16.10;12.20;;;;;;;;;;5074016;28;20039;-63
2022/08/21 13:56:41;;;;;;;16.85;12.10;;;;;;;;;;5073807;28;20508;-64
2022/08/21 13:59:07;;;;;;;16.98;12.23;;;;;;;;;;5062122;28;20025;-64
2022/08/21 14:01:36;;;;;;;15.70;11.70;;;;;;;;;;5059461;28;20029;-64
2022/08/21 14:04:16;;;;;;;16.92;11.80;;;;;;;;;;5059154;28;20025;-63
2022/08/21 14:06:43;;;;;;;18.23;12.07;;;;;;;;;;5072368;28;20492;-63
2022/08/21 14:09:15;;;;;;;18.25;12.68;;;;;;;;;;5055208;28;20127;-64
2022/08/21 14:11:42;;;;;;;16.45;11.90;;;;;;;;;;5073811;28;20040;-63
2022/08/21 14:14:22;;;;;;;16.02;11.85;;;;;;;;;;5072671;28;20496;-63
2022/08/21 14:16:55;;;;;;;17.00;11.85;;;;;;;;;;5073506;28;20060;-63
2022/08/21 14:19:22;;;;;;;16.50;11.70;;;;;;;;;;5055018;28;20039;-63
2022/08/21 14:21:49;;;;;;;17.92;14.00;;;;;;;;;;5073520;28;20094;-63
2022/08/21 14:24:31;;;;;;;18.55;14.43;;;;;;;;;;5073560;28;20028;-63
2022/08/21 14:27:07;;;;;;;18.48;14.10;;;;;;;;;;5073520;28;20020;-63
2022/08/21 14:29:38;;;;;;;17.33;13.68;;;;;;;;;;5073042;28;20025;-57
2022/08/21 14:32:30;;;;;;;16.55;13.93;;;;;;;;;;5054162;28;20499;-55